createdAt,value
2023-04-14T00:00:59.867Z,6.10
2023-04-14T00:02:28.916Z,4.90
2023-04-14T00:06:43.333Z,5.00
2023-04-14T00:11:55.490Z,5.30
2023-04-14T00:15:50.301Z,4.80
2023-04-14T00:17:19.318Z,5.40
2023-04-14T00:21:43.740Z,5.10
2023-04-14T00:26:06.414Z,5.30
2023-04-14T00:28:35.194Z,5.30
2023-04-14T00:31:03.006Z,4.60
2023-04-14T00:46:42.434Z,4.70
2023-04-14T00:48:12.286Z,4.80
2023-04-14T00:50:10.174Z,5.20
2023-04-14T00:52:09.968Z,4.80
2023-04-14T00:56:54.684Z,5.00
2023-04-14T01:03:15.933Z,5.20
2023-04-14T01:06:11.565Z,4.50
2023-04-14T01:09:09.913Z,4.90
2023-04-14T01:11:08.693Z,5.70
2023-04-14T01:17:43.147Z,5.40
2023-04-14T01:22:36.667Z,5.50
2023-04-14T01:26:33.184Z,5.90
2023-04-14T01:28:02.099Z,5.30
2023-04-14T01:31:28.667Z,5.90
2023-04-14T01:34:25.298Z,5.80
2023-04-14T01:35:54.191Z,6.60
2023-04-14T01:38:49.906Z,5.80
2023-04-14T01:44:41.999Z,5.80
2023-04-14T01:46:10.941Z,6.10
2023-04-14T01:47:39.901Z,6.40
2023-04-14T01:56:01.713Z,5.80
2023-04-14T01:57:31.609Z,6.20
2023-04-14T01:59:29.353Z,6.00
2023-04-14T02:01:28.201Z,5.80
2023-04-14T02:03:27.069Z,5.90
2023-04-14T02:05:25.809Z,6.10
2023-04-14T02:10:50.555Z,6.30
2023-04-14T02:17:30.797Z,6.30
2023-04-14T02:18:59.863Z,5.60
2023-04-14T02:21:27.473Z,5.50
2023-04-14T02:22:56.398Z,5.80
2023-04-14T02:24:54.215Z,5.80
2023-04-14T02:27:22.046Z,6.60
2023-04-14T02:29:39.688Z,5.80
2023-04-14T02:32:37.653Z,5.10
2023-04-14T02:35:04.548Z,6.50
2023-04-14T02:37:31.511Z,6.40
2023-04-14T02:39:50.412Z,6.20
2023-04-14T02:40:29.375Z,6.60
2023-04-14T02:41:29.420Z,6.70
2023-04-14T02:45:16.824Z,6.10
2023-04-14T02:47:46.180Z,6.50
2023-04-14T02:50:13.830Z,6.30
2023-04-14T02:52:42.863Z,6.60
2023-04-14T02:59:05.875Z,5.90
2023-04-14T03:00:35.875Z,6.20
2023-04-14T03:03:32.511Z,6.30
2023-04-14T03:08:27.209Z,5.90
2023-04-14T03:13:20.635Z,5.90
2023-04-14T03:14:20.605Z,6.50
2023-04-14T03:15:20.615Z,5.70
2023-04-14T03:16:20.647Z,5.60
2023-04-14T03:19:56.866Z,5.50
2023-04-14T03:28:15.102Z,5.90
2023-04-14T03:29:43.965Z,5.60
2023-04-14T03:32:03.858Z,6.00
2023-04-14T03:33:33.966Z,5.50
2023-04-14T03:35:03.843Z,5.30
2023-04-14T03:39:30.559Z,5.70
2023-04-14T03:41:28.529Z,5.90
2023-04-14T03:43:27.312Z,5.70
2023-04-14T03:45:54.309Z,5.80
2023-04-14T03:47:52.252Z,6.00
2023-04-14T03:50:48.812Z,5.90
2023-04-14T03:53:45.512Z,5.40
2023-04-14T03:55:43.314Z,5.80
2023-04-14T03:57:42.463Z,6.30
2023-04-14T04:00:09.461Z,6.60
2023-04-14T04:05:03.109Z,6.00
2023-04-14T04:08:01.744Z,6.00
2023-04-14T04:10:58.339Z,6.50
2023-04-14T04:12:27.237Z,6.90
2023-04-14T04:13:27.214Z,7.40
2023-04-14T04:14:27.234Z,7.10
2023-04-14T04:20:10.776Z,6.50
2023-04-14T04:27:04.464Z,6.70
2023-04-14T04:30:57.441Z,6.60
2023-04-14T04:33:45.203Z,6.70
2023-04-14T04:35:44.137Z,7.00
2023-04-14T04:37:13.323Z,6.40
2023-04-14T04:38:42.109Z,7.00
2023-04-14T04:42:07.776Z,7.00
2023-04-14T04:43:37.733Z,6.30
2023-04-14T04:46:33.717Z,7.20
2023-04-14T04:49:02.606Z,7.40
2023-04-14T04:54:45.708Z,6.80
2023-04-14T04:56:14.537Z,6.60
2023-04-14T04:58:12.345Z,6.40
2023-04-14T05:00:10.321Z,7.00
2023-04-14T05:01:10.344Z,6.30
2023-04-14T05:02:10.360Z,7.10
2023-04-14T05:04:08.369Z,6.80
2023-04-14T05:05:38.142Z,6.20
2023-04-14T05:08:35.923Z,6.00
2023-04-14T05:12:03.554Z,6.40
2023-04-14T05:13:32.445Z,7.00
2023-04-14T05:15:01.810Z,7.40
2023-04-14T05:16:59.175Z,7.40
2023-04-14T05:18:28.221Z,8.10
2023-04-14T05:21:55.024Z,7.90
2023-04-14T05:26:44.468Z,7.50
2023-04-14T05:28:20.085Z,7.60
2023-04-14T05:31:18.860Z,8.40
2023-04-14T05:32:48.770Z,8.40
2023-04-14T05:34:46.570Z,9.30
2023-04-14T05:38:40.185Z,8.50
2023-04-14T05:40:10.065Z,8.60
2023-04-14T05:41:38.923Z,9.30
2023-04-14T05:43:07.810Z,8.90
2023-04-14T05:47:25.720Z,8.90
2023-04-14T05:48:54.588Z,8.90
2023-04-14T05:53:19.336Z,9.00
2023-04-14T05:55:17.630Z,9.60
2023-04-14T05:59:43.544Z,9.40
2023-04-14T06:04:00.713Z,9.40
2023-04-14T06:05:30.121Z,9.60
2023-04-14T06:08:26.765Z,10.60
2023-04-14T06:12:21.312Z,9.40
2023-04-14T06:14:19.124Z,8.90
2023-04-14T06:15:49.021Z,9.70
2023-04-14T06:18:45.622Z,9.40
2023-04-14T06:20:43.517Z,8.70
2023-04-14T06:21:43.520Z,8.30
2023-04-14T06:22:43.478Z,8.60
2023-04-14T06:24:12.421Z,9.80
2023-04-14T06:26:10.263Z,8.80
2023-04-14T06:29:07.935Z,8.20
2023-04-14T06:30:36.770Z,7.70
2023-04-14T06:32:57.029Z,7.80
2023-04-14T06:37:20.314Z,8.50
2023-04-14T06:39:18.172Z,8.00
2023-04-14T06:44:13.999Z,7.00
2023-04-14T06:46:40.729Z,7.00
2023-04-14T06:49:36.786Z,6.80
2023-04-14T06:53:02.740Z,6.80
2023-04-14T06:54:31.679Z,6.70
2023-04-14T06:56:00.617Z,7.90
2023-04-14T06:57:29.496Z,6.50
2023-04-14T07:01:25.037Z,6.80
2023-04-14T07:02:54.017Z,7.90
2023-04-14T07:04:53.917Z,6.40
2023-04-14T07:06:51.915Z,5.90
2023-04-14T07:14:22.721Z,5.90
2023-04-14T07:15:51.659Z,5.90
2023-04-14T07:19:19.267Z,5.40
2023-04-14T07:21:48.227Z,5.40
2023-04-14T07:23:17.071Z,5.40
2023-04-14T07:25:14.960Z,5.60
2023-04-14T07:26:43.859Z,5.60
2023-04-14T07:28:13.755Z,4.90
2023-04-14T07:30:12.529Z,5.20
2023-04-14T07:31:41.619Z,4.90
2023-04-14T07:40:40.017Z,4.80
2023-04-14T07:43:06.206Z,4.60
2023-04-14T07:45:34.105Z,5.40
2023-04-14T07:49:28.782Z,4.70
2023-04-14T07:54:50.205Z,4.80
2023-04-14T07:58:16.005Z,5.80
2023-04-14T08:00:14.549Z,5.00
2023-04-14T08:01:43.591Z,4.90
2023-04-14T08:03:45.356Z,5.10
2023-04-14T08:09:07.692Z,4.40
2023-04-14T08:15:00.564Z,4.50
2023-04-14T08:17:18.258Z,4.20
2023-04-14T08:20:44.808Z,4.70
2023-04-14T08:22:13.609Z,4.40
2023-04-14T08:26:38.131Z,3.80
2023-04-14T08:31:22.919Z,3.20
2023-04-14T08:32:51.858Z,3.40
2023-04-14T08:36:16.778Z,4.10
2023-04-14T08:37:46.689Z,3.80
2023-04-14T08:42:40.779Z,3.20
2023-04-14T08:45:09.475Z,3.80
2023-04-14T08:51:06.506Z,3.10
2023-04-14T08:55:31.066Z,4.00
2023-04-14T08:58:56.738Z,2.70
2023-04-14T09:01:43.230Z,3.20
2023-04-14T09:05:10.851Z,3.10
2023-04-14T09:06:40.044Z,2.90
2023-04-14T09:08:09.849Z,3.10
2023-04-14T09:10:37.613Z,3.00
2023-04-14T09:12:06.565Z,3.60
2023-04-14T09:13:35.450Z,3.70
2023-04-14T09:15:04.346Z,3.30
2023-04-14T09:17:03.246Z,4.70
2023-04-14T09:19:07.051Z,3.20
2023-04-14T09:20:35.807Z,4.00
2023-04-14T09:22:02.793Z,3.30
2023-04-14T09:23:31.679Z,2.80
2023-04-14T09:26:04.453Z,3.00
2023-04-14T09:27:36.302Z,2.50
2023-04-14T09:30:03.092Z,2.50
2023-04-14T09:31:35.076Z,2.40
2023-04-14T09:36:58.480Z,2.60
2023-04-14T09:38:30.663Z,2.30
2023-04-14T09:40:28.614Z,2.60
2023-04-14T09:43:01.497Z,2.90
2023-04-14T09:45:31.352Z,3.20
2023-04-14T09:49:57.496Z,2.60
2023-04-14T09:51:26.334Z,2.50
2023-04-14T09:52:55.195Z,2.10
2023-04-14T09:55:24.914Z,2.40
2023-04-14T10:01:18.551Z,2.90
2023-04-14T10:03:16.334Z,2.90
2023-04-14T10:08:08.844Z,2.50
2023-04-14T10:09:37.811Z,1.90
2023-04-14T10:12:04.627Z,1.70
2023-04-14T10:13:33.532Z,1.60
2023-04-14T10:15:03.401Z,2.50
2023-04-14T10:17:01.117Z,1.90
2023-04-14T10:18:30.036Z,2.30
2023-04-14T10:21:56.754Z,2.50
2023-04-14T10:27:20.131Z,2.60
2023-04-14T10:29:18.986Z,2.40
2023-04-14T10:31:47.487Z,2.20
2023-04-14T10:35:14.776Z,2.30
2023-04-14T10:37:12.566Z,2.10
2023-04-14T10:38:41.445Z,5.20
2023-04-14T10:40:10.412Z,3.30
2023-04-14T10:47:31.596Z,3.00
2023-04-14T10:52:28.148Z,2.30
2023-04-14T10:54:55.917Z,2.80
2023-04-14T10:56:55.723Z,2.90
2023-04-14T10:59:22.637Z,2.60
2023-04-14T11:03:17.822Z,2.80
2023-04-14T11:04:47.202Z,2.90
2023-04-14T11:09:59.498Z,2.70
2023-04-14T11:11:29.406Z,3.00
2023-04-14T11:13:27.133Z,3.20
2023-04-14T11:14:56.509Z,2.80
2023-04-14T11:16:26.053Z,2.70
2023-04-14T11:17:55.874Z,2.80
2023-04-14T11:19:24.726Z,2.70
2023-04-14T11:21:42.322Z,3.00
2023-04-14T11:24:09.317Z,2.80
2023-04-14T11:29:43.893Z,2.20
2023-04-14T11:31:42.681Z,2.60
2023-04-14T11:33:40.564Z,2.40
2023-04-14T11:39:12.443Z,2.10
2023-04-14T11:45:53.512Z,3.00
2023-04-14T11:48:49.174Z,2.90
2023-04-14T11:52:44.756Z,2.40
2023-04-14T12:04:20.453Z,2.70
2023-04-14T12:06:18.023Z,3.10
2023-04-14T12:11:14.183Z,2.80
2023-04-14T12:14:30.080Z,2.90
2023-04-14T12:17:16.658Z,2.80
2023-04-14T12:19:14.436Z,2.60
2023-04-14T12:22:43.132Z,2.80
2023-04-14T12:24:11.995Z,2.80
2023-04-14T12:25:40.923Z,3.70
2023-04-14T12:30:25.289Z,3.20
2023-04-14T12:31:55.220Z,2.80
2023-04-14T12:34:24.990Z,3.20
2023-04-14T12:38:11.793Z,3.90
2023-04-14T12:45:11.163Z,2.50
2023-04-14T12:52:28.840Z,3.20
2023-04-14T12:54:27.166Z,2.80
2023-04-14T12:55:56.076Z,2.90
2023-04-14T13:00:21.489Z,2.50
2023-04-14T13:02:19.659Z,2.80
2023-04-14T13:03:49.573Z,2.60
2023-04-14T13:07:43.315Z,2.40
2023-04-14T13:10:40.672Z,2.70
2023-04-14T13:12:39.494Z,2.80
2023-04-14T13:14:08.408Z,2.90
2023-04-14T13:16:12.889Z,3.40
2023-04-14T13:17:37.711Z,2.50
2023-04-14T13:23:47.231Z,2.20
2023-04-14T13:25:17.080Z,2.40
2023-04-14T13:27:16.961Z,2.60
2023-04-14T13:29:45.081Z,2.20
2023-04-14T13:31:13.855Z,2.80
2023-04-14T13:32:43.887Z,2.10
2023-04-14T13:34:13.809Z,2.30
2023-04-14T13:35:42.683Z,2.30
2023-04-14T13:37:11.560Z,2.50
2023-04-14T13:38:41.552Z,2.50
2023-04-14T13:40:11.481Z,2.70
2023-04-14T13:44:37.104Z,2.30
2023-04-14T13:52:40.572Z,2.30
2023-04-14T13:55:36.530Z,2.10
2023-04-14T13:57:06.222Z,2.80
2023-04-14T14:01:01.636Z,2.90
2023-04-14T14:02:31.589Z,2.70
2023-04-14T14:04:00.664Z,2.60
2023-04-14T14:05:29.746Z,2.60
2023-04-14T14:15:16.764Z,2.60
2023-04-14T14:17:15.018Z,2.30
2023-04-14T14:19:14.081Z,2.90
2023-04-14T14:23:35.366Z,2.80
2023-04-14T14:25:18.287Z,2.60
2023-04-14T14:26:36.213Z,2.40
2023-04-14T14:31:04.959Z,2.50
2023-04-14T14:34:01.340Z,5.80
2023-04-14T14:37:17.648Z,3.10
2023-04-14T14:40:17.129Z,2.40
2023-04-14T14:46:10.748Z,2.50
2023-04-14T14:53:13.928Z,3.30
2023-04-14T14:57:09.336Z,2.70
2023-04-14T15:04:30.914Z,2.60
2023-04-14T15:06:28.735Z,2.90
2023-04-14T15:07:57.647Z,2.70
2023-04-14T15:10:44.366Z,2.30
2023-04-14T15:14:39.734Z,3.20
2023-04-14T15:17:27.393Z,2.20
2023-04-14T15:20:52.071Z,2.30
2023-04-14T15:22:50.872Z,2.30
2023-04-14T15:24:49.748Z,2.30
2023-04-14T15:26:19.625Z,3.10
2023-04-14T15:28:47.892Z,3.20
2023-04-14T15:32:13.954Z,2.90
2023-04-14T15:35:01.869Z,2.80
2023-04-14T15:37:00.592Z,2.70
2023-04-14T15:50:44.327Z,3.00
2023-04-14T15:52:10.442Z,2.70
2023-04-14T15:53:39.424Z,2.70
2023-04-14T15:55:08.497Z,3.10
2023-04-14T15:59:52.711Z,2.30
2023-04-14T16:02:20.708Z,2.50
2023-04-14T16:06:36.047Z,2.20
2023-04-14T16:08:33.805Z,2.40
2023-04-14T16:11:21.046Z,2.00
2023-04-14T16:13:20.278Z,2.00
2023-04-14T16:16:16.026Z,2.10
2023-04-14T16:18:42.882Z,1.90
2023-04-14T16:21:11.587Z,2.00
2023-04-14T16:30:11.426Z,2.00
2023-04-14T16:34:07.127Z,2.10
2023-04-14T16:38:33.757Z,2.70
2023-04-14T16:44:23.880Z,2.10
2023-04-14T16:45:52.762Z,2.00
2023-04-14T16:47:21.652Z,1.90
2023-04-14T16:49:48.756Z,2.50
2023-04-14T16:51:17.609Z,2.20
2023-04-14T16:53:15.497Z,2.30
2023-04-14T16:56:41.464Z,2.20
2023-04-14T16:59:58.038Z,2.50
2023-04-14T17:01:57.902Z,2.30
2023-04-14T17:03:26.949Z,2.10
2023-04-14T17:06:24.385Z,2.10
2023-04-14T17:09:20.986Z,2.10
2023-04-14T17:12:42.239Z,1.60
2023-04-14T17:16:08.714Z,2.60
2023-04-14T17:17:36.195Z,2.30
2023-04-14T17:20:03.358Z,2.10
2023-04-14T17:21:03.323Z,2.30
2023-04-14T17:22:24.646Z,2.20
2023-04-14T17:26:08.010Z,2.60
2023-04-14T17:27:39.863Z,2.30
2023-04-14T17:29:56.852Z,2.10
2023-04-14T17:31:26.671Z,2.00
2023-04-14T17:35:38.438Z,2.50
2023-04-14T17:37:08.660Z,2.80
2023-04-14T17:43:05.352Z,3.30
2023-04-14T17:44:35.312Z,4.00
2023-04-14T17:47:34.666Z,3.80
2023-04-14T17:49:32.067Z,14.50
2023-04-14T17:52:01.857Z,3.20
2023-04-14T17:54:42.189Z,3.80
2023-04-14T17:57:43.972Z,3.20
2023-04-14T18:04:28.546Z,2.80
2023-04-14T18:06:55.845Z,2.80
2023-04-14T18:09:57.270Z,4.00
2023-04-14T18:14:43.003Z,4.10
2023-04-14T18:16:11.889Z,4.10
2023-04-14T18:17:40.943Z,4.00
2023-04-14T18:21:40.037Z,5.30
2023-04-14T18:26:57.103Z,3.40
2023-04-14T18:28:26.390Z,4.40
2023-04-14T18:29:55.961Z,3.90
2023-04-14T18:31:26.230Z,4.40
2023-04-14T18:33:25.712Z,4.00
2023-04-14T18:34:56.726Z,4.20
2023-04-14T18:45:30.170Z,4.00
2023-04-14T18:49:25.336Z,4.30
2023-04-14T18:51:55.091Z,3.70
2023-04-14T18:53:55.801Z,3.80
2023-04-14T18:55:45.652Z,3.80
2023-04-14T18:58:40.270Z,4.00
2023-04-14T19:00:10.007Z,4.90
2023-04-14T19:03:56.633Z,5.20
2023-04-14T19:05:25.615Z,4.60
2023-04-14T19:07:46.423Z,4.10
2023-04-14T19:10:04.620Z,5.20
2023-04-14T19:12:02.931Z,5.60
2023-04-14T19:17:28.096Z,5.50
2023-04-14T19:21:35.759Z,5.10
2023-04-14T19:24:55.188Z,5.30
2023-04-14T19:28:23.537Z,4.90
2023-04-14T19:36:19.026Z,4.50
2023-04-14T19:38:07.510Z,5.30
2023-04-14T19:42:25.254Z,4.80
2023-04-14T19:44:24.494Z,4.30
2023-04-14T19:46:22.632Z,5.10
2023-04-14T19:56:53.144Z,3.90
2023-04-14T19:59:59.798Z,4.00
2023-04-14T20:02:38.342Z,3.40
2023-04-14T20:04:38.431Z,3.60
2023-04-14T20:06:09.089Z,3.60
2023-04-14T20:08:29.788Z,3.80
2023-04-14T20:12:00.418Z,4.50
2023-04-14T20:15:36.942Z,3.60
2023-04-14T20:18:34.109Z,3.60
2023-04-14T20:20:03.047Z,4.20
2023-04-14T20:23:40.528Z,3.80
2023-04-14T20:25:40.472Z,4.80
2023-04-14T20:27:09.401Z,4.10
2023-04-14T20:29:56.586Z,4.70
2023-04-14T20:31:56.273Z,4.00
2023-04-14T20:34:43.068Z,4.20
2023-04-14T20:38:15.650Z,4.00
2023-04-14T20:39:43.595Z,3.60
2023-04-14T20:40:43.529Z,3.80
2023-04-14T20:41:43.504Z,3.50
2023-04-14T20:42:43.607Z,3.40
2023-04-14T20:45:34.915Z,3.90
2023-04-14T20:49:00.344Z,3.80
2023-04-14T20:50:58.157Z,4.40
2023-04-14T20:52:27.299Z,3.80
2023-04-14T20:55:08.405Z,3.60
2023-04-14T20:55:47.373Z,3.90
2023-04-14T20:56:47.360Z,3.80
2023-04-14T20:58:48.274Z,4.40
2023-04-14T21:02:05.199Z,4.70
2023-04-14T21:05:53.870Z,4.00
2023-04-14T21:06:54.539Z,3.70
2023-04-14T21:07:53.818Z,3.80
2023-04-14T21:14:59.474Z,3.60
2023-04-14T21:15:48.360Z,3.30
2023-04-14T21:16:47.671Z,3.40
2023-04-14T21:18:49.744Z,3.80
2023-04-14T21:22:55.381Z,4.20
2023-04-14T21:30:53.875Z,3.90
2023-04-14T21:32:23.060Z,3.40
2023-04-14T21:34:22.968Z,3.60
2023-04-14T21:37:24.839Z,4.60
2023-04-14T21:39:52.295Z,3.60
2023-04-14T21:41:22.352Z,3.40
2023-04-14T21:42:51.780Z,3.60
2023-04-14T21:45:39.377Z,3.00
2023-04-14T21:49:29.565Z,3.50
2023-04-14T21:51:16.574Z,3.10
2023-04-14T21:55:28.596Z,3.80
2023-04-14T22:01:23.095Z,3.60
2023-04-14T22:06:35.511Z,3.60
2023-04-14T22:08:35.301Z,3.60
2023-04-14T22:13:41.274Z,3.80
2023-04-14T22:19:09.046Z,4.90
2023-04-14T22:20:36.185Z,4.60
2023-04-14T22:23:46.758Z,4.00
2023-04-14T22:26:13.820Z,4.40
2023-04-14T22:28:33.757Z,4.10
2023-04-14T22:30:03.046Z,3.90
2023-04-14T22:32:33.405Z,4.30
2023-04-14T22:34:31.537Z,3.90
2023-04-14T22:39:43.688Z,4.90
2023-04-14T22:50:52.248Z,4.60
2023-04-14T22:55:13.915Z,4.00
2023-04-14T22:57:11.241Z,3.60
2023-04-14T22:59:39.480Z,3.50
2023-04-14T23:02:08.798Z,4.40
2023-04-14T23:03:39.490Z,4.90
2023-04-14T23:05:08.619Z,4.20
2023-04-14T23:06:55.500Z,4.60
2023-04-14T23:08:26.267Z,4.50
2023-04-14T23:09:54.403Z,4.60
2023-04-14T23:11:45.089Z,4.10
2023-04-14T23:14:00.879Z,4.60
2023-04-14T23:16:01.462Z,4.70
2023-04-14T23:17:30.635Z,4.40
2023-04-14T23:24:19.718Z,4.50
2023-04-14T23:27:40.713Z,5.20
2023-04-14T23:29:46.744Z,5.50
2023-04-14T23:31:47.576Z,5.00
2023-04-14T23:33:16.014Z,4.90
2023-04-14T23:39:06.373Z,4.80
2023-04-14T23:46:19.851Z,5.70
2023-04-14T23:51:46.386Z,5.60
2023-04-14T23:53:16.924Z,4.70
